createdAt,value
2018-10-01T00:01:27.303Z,14.63
2018-10-01T00:03:57.181Z,14.17
2018-10-01T00:06:27.537Z,15.17
2018-10-01T00:08:58.022Z,15.40
2018-10-01T00:11:27.862Z,17.90
2018-10-01T00:13:58.258Z,17.90
2018-10-01T00:16:28.076Z,12.80
2018-10-01T00:18:58.194Z,14.97
2018-10-01T00:21:33.286Z,16.07
2018-10-01T00:24:03.752Z,17.73
2018-10-01T00:26:34.030Z,19.00
2018-10-01T00:29:04.298Z,15.47
2018-10-01T00:31:35.339Z,13.47
2018-10-01T00:34:05.771Z,13.90
2018-10-01T00:36:36.012Z,17.47
2018-10-01T00:39:08.364Z,14.47
2018-10-01T00:41:38.369Z,17.53
2018-10-01T00:44:08.799Z,19.33
2018-10-01T00:46:38.779Z,18.07
2018-10-01T00:49:09.058Z,17.53
2018-10-01T00:51:39.407Z,20.73
2018-10-01T00:54:09.439Z,16.23
2018-10-01T00:56:39.875Z,17.10
2018-10-01T00:59:09.715Z,19.27
2018-10-01T01:01:39.522Z,23.43
2018-10-01T01:04:09.748Z,21.27
2018-10-01T01:06:40.127Z,21.63
2018-10-01T01:09:10.326Z,17.47
2018-10-01T01:11:40.104Z,20.70
2018-10-01T01:14:10.675Z,22.23
2018-10-01T01:16:40.878Z,18.10
2018-10-01T01:19:10.622Z,20.17
2018-10-01T01:21:40.451Z,22.93
2018-10-01T01:24:10.930Z,24.60
2018-10-01T01:26:41.479Z,18.83
2018-10-01T01:29:11.646Z,19.77
2018-10-01T01:31:41.782Z,25.80
2018-10-01T01:34:11.908Z,24.10
2018-10-01T01:36:41.804Z,22.77
2018-10-01T01:39:13.031Z,23.67
2018-10-01T01:41:43.071Z,22.20
2018-10-01T01:44:13.090Z,22.73
2018-10-01T01:46:43.820Z,22.47
2018-10-01T01:49:14.079Z,20.40
2018-10-01T01:51:44.426Z,20.83
2018-10-01T01:54:15.071Z,21.57
2018-10-01T01:56:45.181Z,21.20
2018-10-01T01:59:15.087Z,22.80
2018-10-01T02:01:45.479Z,27.07
2018-10-01T02:04:15.699Z,23.43
2018-10-01T02:06:45.502Z,21.83
2018-10-01T02:09:15.631Z,23.20
2018-10-01T02:11:45.602Z,19.33
2018-10-01T02:14:15.407Z,21.20
2018-10-01T02:16:45.205Z,17.77
2018-10-01T02:19:15.187Z,17.67
2018-10-01T02:21:45.509Z,14.10
2018-10-01T02:24:15.627Z,12.17
2018-10-01T02:26:45.823Z,13.80
2018-10-01T02:30:35.277Z,10.07
2018-10-01T02:33:05.383Z,12.47
2018-10-01T02:35:35.600Z,7.93
2018-10-01T02:38:05.686Z,6.63
2018-10-01T02:40:35.463Z,9.60
2018-10-01T02:43:05.550Z,6.17
2018-10-01T02:45:36.036Z,6.73
2018-10-01T02:48:06.665Z,4.17
2018-10-01T02:50:37.035Z,6.60
2018-10-01T02:53:12.112Z,3.43
2018-10-01T02:55:42.365Z,5.93
2018-10-01T02:58:12.187Z,8.60
2018-10-01T03:00:41.982Z,6.63
2018-10-01T03:03:12.185Z,8.43
2018-10-01T03:05:42.010Z,6.80
2018-10-01T03:08:11.807Z,4.93
2018-10-01T03:10:41.593Z,7.30
2018-10-01T03:13:11.468Z,4.07
2018-10-01T03:15:41.255Z,4.80
2018-10-01T03:18:11.355Z,5.10
2018-10-01T03:20:41.205Z,5.87
2018-10-01T03:23:11.015Z,5.40
2018-10-01T03:25:42.346Z,6.37
2018-10-01T03:28:12.991Z,4.77
2018-10-01T03:30:42.904Z,5.37
2018-10-01T03:33:13.275Z,5.40
2018-10-01T03:35:43.034Z,8.10
2018-10-01T03:38:12.866Z,3.47
2018-10-01T03:40:42.791Z,4.60
2018-10-01T03:43:12.564Z,5.40
2018-10-01T03:45:42.416Z,6.07
2018-10-01T03:48:12.299Z,2.80
2018-10-01T03:50:42.547Z,5.27
2018-10-01T03:53:12.535Z,4.40
2018-10-01T03:55:42.495Z,7.27
2018-10-01T03:58:12.831Z,3.63
2018-10-01T04:00:42.935Z,4.43
2018-10-01T04:03:12.743Z,5.20
2018-10-01T04:05:42.578Z,4.73
2018-10-01T04:08:12.440Z,3.57
2018-10-01T04:10:42.687Z,6.13
2018-10-01T04:13:12.431Z,5.07
2018-10-01T04:15:42.235Z,2.80
2018-10-01T04:18:12.559Z,6.10
2018-10-01T04:20:42.342Z,3.80
2018-10-01T04:23:12.106Z,4.87
2018-10-01T04:25:41.927Z,4.83
2018-10-01T04:28:12.195Z,5.80
2018-10-01T04:30:41.994Z,5.23
2018-10-01T04:33:11.935Z,6.03
2018-10-01T04:35:41.750Z,6.60
2018-10-01T04:38:11.587Z,4.93
2018-10-01T04:40:41.843Z,6.10
2018-10-01T04:43:11.819Z,4.57
2018-10-01T04:45:42.011Z,6.70
2018-10-01T04:48:11.880Z,4.97
2018-10-01T04:50:42.131Z,4.73
2018-10-01T04:53:12.659Z,8.03
2018-10-01T04:55:42.520Z,9.77
2018-10-01T04:58:12.789Z,13.27
2018-10-01T05:00:46.713Z,10.57
2018-10-01T05:03:16.487Z,10.50
2018-10-01T05:05:46.275Z,15.17
2018-10-01T05:08:16.467Z,16.67
2018-10-01T05:10:46.714Z,19.20
2018-10-01T05:13:16.922Z,22.90
2018-10-01T05:15:47.226Z,28.20
2018-10-01T05:18:17.550Z,21.67
2018-10-01T05:20:47.603Z,28.53
2018-10-01T05:23:17.791Z,27.80
2018-10-01T05:25:47.662Z,28.67
2018-10-01T05:28:17.846Z,27.13
2018-10-01T05:30:48.131Z,27.13
2018-10-01T05:33:17.977Z,23.93
2018-10-01T05:35:48.055Z,20.73
2018-10-01T05:38:18.319Z,25.30
2018-10-01T05:40:48.378Z,23.50
2018-10-01T05:43:18.390Z,19.97
2018-10-01T05:45:48.973Z,20.40
2018-10-01T05:48:19.077Z,19.80
2018-10-01T05:50:48.842Z,21.47
2018-10-01T05:53:19.096Z,22.93
2018-10-01T05:55:48.842Z,18.53
2018-10-01T05:58:18.928Z,14.70
2018-10-01T06:00:49.345Z,16.47
2018-10-01T06:03:22.325Z,21.53
2018-10-01T06:05:52.782Z,16.00
2018-10-01T06:08:23.026Z,14.63
2018-10-01T06:10:52.983Z,19.80
2018-10-01T06:13:22.754Z,15.07
2018-10-01T06:15:52.578Z,15.83
2018-10-01T06:18:22.653Z,16.13
2018-10-01T06:20:52.471Z,14.93
2018-10-01T06:23:22.260Z,8.73
2018-10-01T06:25:52.199Z,13.00
2018-10-01T06:28:22.030Z,10.53
2018-10-01T06:30:52.008Z,17.77
2018-10-01T06:33:27.999Z,13.23
2018-10-01T06:35:57.857Z,10.87
2018-10-01T06:38:29.287Z,11.03
2018-10-01T06:41:15.242Z,10.00
2018-10-01T06:43:56.818Z,10.63
2018-10-01T06:46:40.484Z,6.40
2018-10-01T06:49:10.980Z,10.00
2018-10-01T06:51:40.951Z,8.50
2018-10-01T06:54:40.400Z,9.73
2018-10-01T06:57:10.355Z,12.23
2018-10-01T06:59:40.275Z,10.40
2018-10-01T07:02:22.743Z,7.10
2018-10-01T07:04:53.154Z,9.37
2018-10-01T07:07:24.121Z,5.97
2018-10-01T07:10:14.625Z,8.17
2018-10-01T07:12:44.855Z,9.33
2018-10-01T07:15:16.179Z,11.23
2018-10-01T07:17:46.440Z,6.83
2018-10-01T07:20:17.422Z,7.40
2018-10-01T07:22:48.825Z,7.20
2018-10-01T07:25:19.570Z,8.53
2018-10-01T07:27:49.347Z,8.43
2018-10-01T07:30:19.226Z,6.33
2018-10-01T07:32:49.396Z,6.37
2018-10-01T07:35:19.942Z,5.53
2018-10-01T07:37:50.190Z,6.43
2018-10-01T07:40:20.240Z,7.50
2018-10-01T07:42:50.090Z,4.77
2018-10-01T07:45:20.243Z,5.33
2018-10-01T07:47:50.041Z,4.67
2018-10-01T07:50:19.902Z,5.93
2018-10-01T07:52:49.976Z,5.40
2018-10-01T07:55:20.223Z,3.27
2018-10-01T07:57:51.078Z,7.07
2018-10-01T08:00:22.392Z,4.57
2018-10-01T08:02:52.717Z,7.03
2018-10-01T08:05:22.552Z,7.07
2018-10-01T08:07:52.383Z,4.90
2018-10-01T08:10:22.227Z,4.67
2018-10-01T08:12:53.091Z,5.23
2018-10-01T08:15:23.498Z,6.37
2018-10-01T08:17:53.276Z,5.23
2018-10-01T08:20:23.080Z,4.43
2018-10-01T08:22:52.865Z,4.17
2018-10-01T08:25:22.610Z,2.67
2018-10-01T08:27:52.404Z,4.60
2018-10-01T08:30:22.620Z,3.93
2018-10-01T08:32:52.395Z,6.67
2018-10-01T08:35:22.184Z,5.33
2018-10-01T08:37:51.986Z,4.43
2018-10-01T08:40:21.747Z,3.00
2018-10-01T08:42:51.500Z,5.00
2018-10-01T08:45:21.261Z,4.80
2018-10-01T08:47:51.484Z,4.37
2018-10-01T08:50:26.209Z,9.07
2018-10-01T08:54:03.500Z,6.77
2018-10-01T08:56:34.265Z,7.20
2018-10-01T08:59:05.584Z,4.53
2018-10-01T09:01:35.705Z,7.70
2018-10-01T09:04:05.592Z,7.00
2018-10-01T09:06:35.931Z,5.97
2018-10-01T09:09:07.532Z,7.03
2018-10-01T09:11:37.403Z,5.33
2018-10-01T09:14:07.667Z,9.43
2018-10-01T09:16:37.526Z,4.60
2018-10-01T09:19:07.637Z,4.40
2018-10-01T09:21:38.387Z,4.83
2018-10-01T09:24:08.689Z,5.70
2018-10-01T09:26:38.685Z,10.83
2018-10-01T09:29:08.967Z,3.67
2018-10-01T09:31:39.631Z,5.23
2018-10-01T09:34:09.996Z,5.10
2018-10-01T09:36:40.202Z,5.70
2018-10-01T09:39:11.457Z,5.60
2018-10-01T09:41:41.825Z,8.27
2018-10-01T09:44:12.043Z,7.50
2018-10-01T09:46:44.847Z,7.10
2018-10-01T09:49:15.348Z,5.87
2018-10-01T09:51:45.686Z,6.57
2018-10-01T09:54:15.871Z,8.63
2018-10-01T09:56:45.699Z,7.57
2018-10-01T09:59:15.889Z,6.37
2018-10-01T10:01:45.763Z,5.47
2018-10-01T10:04:15.604Z,7.13
2018-10-01T10:06:46.123Z,5.97
2018-10-01T10:09:17.348Z,5.10
2018-10-01T10:11:47.287Z,5.50
2018-10-01T10:14:17.180Z,2.83
2018-10-01T10:16:47.286Z,4.47
2018-10-01T10:19:17.121Z,5.77
2018-10-01T10:21:46.926Z,5.47
2018-10-01T10:24:17.039Z,4.87
2018-10-01T10:26:47.005Z,6.13
2018-10-01T10:29:16.790Z,4.20
2018-10-01T10:31:47.045Z,4.67
2018-10-01T10:34:17.319Z,2.37
2018-10-01T10:36:47.948Z,7.83
2018-10-01T10:39:17.804Z,10.63
2018-10-01T10:41:49.233Z,9.40
2018-10-01T10:44:20.688Z,7.37
2018-10-01T10:46:50.694Z,6.33
2018-10-01T10:49:20.557Z,6.87
2018-10-01T10:51:50.893Z,4.37
2018-10-01T10:54:20.731Z,3.80
2018-10-01T10:56:50.905Z,5.93
2018-10-01T10:59:20.717Z,4.87
2018-10-01T11:01:50.798Z,3.17
2018-10-01T11:04:20.588Z,5.30
2018-10-01T11:06:50.768Z,3.73
2018-10-01T11:09:22.227Z,3.03
2018-10-01T11:11:52.280Z,3.33
2018-10-01T11:14:22.217Z,5.00
2018-10-01T11:21:00.932Z,1.67
2018-10-01T11:23:31.129Z,1.77
2018-10-01T11:26:01.290Z,5.03
2018-10-01T11:28:31.619Z,2.30
2018-10-01T11:31:01.510Z,3.93
2018-10-01T11:33:31.611Z,1.67
2018-10-01T11:36:01.431Z,3.90
2018-10-01T11:38:31.502Z,2.30
2018-10-01T11:41:01.471Z,1.63
2018-10-01T11:43:31.822Z,3.40
2018-10-01T11:46:01.780Z,2.27
2018-10-01T11:48:31.631Z,1.80
2018-10-01T11:51:01.467Z,2.07
2018-10-01T11:53:31.295Z,3.13
2018-10-01T11:56:01.111Z,2.03
2018-10-01T11:58:30.886Z,1.60
2018-10-01T12:01:00.800Z,4.60
2018-10-01T12:03:30.870Z,1.53
2018-10-01T12:06:00.699Z,3.63
2018-10-01T12:08:30.507Z,3.33
2018-10-01T12:11:01.342Z,3.67
2018-10-01T12:13:31.531Z,4.07
2018-10-01T12:16:01.455Z,2.83
2018-10-01T12:18:31.175Z,3.33
2018-10-01T12:21:01.642Z,5.00
2018-10-01T12:23:33.121Z,6.70
2018-10-01T12:26:03.424Z,5.33
2018-10-01T12:28:33.705Z,4.13
2018-10-01T12:31:04.783Z,5.30
2018-10-01T12:33:34.892Z,4.70
2018-10-01T12:36:04.688Z,6.27
2018-10-01T12:38:35.581Z,3.60
2018-10-01T12:41:07.407Z,3.90
2018-10-01T12:43:37.621Z,3.80
2018-10-01T12:46:07.977Z,4.80
2018-10-01T12:48:38.106Z,4.43
2018-10-01T12:51:08.305Z,3.53
2018-10-01T12:53:38.905Z,6.77
2018-10-01T12:56:09.115Z,5.00
2018-10-01T12:58:39.811Z,9.70
2018-10-01T13:01:09.988Z,5.20
2018-10-01T13:04:59.913Z,6.70
2018-10-01T13:07:30.193Z,6.77
2018-10-01T13:10:00.141Z,7.53
2018-10-01T13:12:30.566Z,8.27
2018-10-01T13:15:00.503Z,7.60
2018-10-01T13:17:31.236Z,7.53
2018-10-01T13:20:01.665Z,8.47
2018-10-01T13:22:31.914Z,7.03
2018-10-01T13:25:02.833Z,5.23
2018-10-01T13:27:35.162Z,4.00
2018-10-01T13:30:05.742Z,5.73
2018-10-01T13:32:36.354Z,6.57
2018-10-01T13:35:06.965Z,7.47
2018-10-01T13:37:37.027Z,8.70
2018-10-01T13:40:07.643Z,8.80
2018-10-01T13:42:37.515Z,7.07
2018-10-01T13:45:07.381Z,7.83
2018-10-01T13:47:38.448Z,9.30
2018-10-01T13:50:09.221Z,7.23
2018-10-01T13:52:39.027Z,7.50
2018-10-01T13:55:09.248Z,7.07
2018-10-01T13:57:39.263Z,6.43
2018-10-01T14:00:09.440Z,8.00
2018-10-01T14:02:40.588Z,5.13
2018-10-01T14:05:14.011Z,5.83
2018-10-01T14:07:44.973Z,5.83
2018-10-01T14:10:15.396Z,6.40
2018-10-01T14:12:45.891Z,8.07
2018-10-01T14:15:16.073Z,6.70
2018-10-01T14:17:46.670Z,7.67
2018-10-01T14:20:17.077Z,6.10
2018-10-01T14:22:47.235Z,7.20
2018-10-01T14:25:17.702Z,9.50
2018-10-01T14:27:47.700Z,7.17
2018-10-01T14:30:18.340Z,4.60
2018-10-01T14:32:48.671Z,6.03
2018-10-01T14:35:20.295Z,4.63
2018-10-01T14:37:50.239Z,5.77
2018-10-01T14:40:21.718Z,6.17
2018-10-01T14:43:01.241Z,3.27
2018-10-01T14:45:31.307Z,8.77
2018-10-01T14:48:02.199Z,7.23
2018-10-01T14:50:32.720Z,6.47
2018-10-01T14:53:02.724Z,6.30
2018-10-01T14:55:32.951Z,8.57
2018-10-01T14:58:03.301Z,9.00
2018-10-01T15:00:33.276Z,9.13
2018-10-01T15:03:03.823Z,9.40
2018-10-01T15:05:34.547Z,8.83
2018-10-01T15:08:04.610Z,7.17
2018-10-01T15:10:34.875Z,7.17
2018-10-01T15:13:05.011Z,7.27
2018-10-01T15:15:34.772Z,7.87
2018-10-01T15:18:05.477Z,8.50
2018-10-01T15:20:35.688Z,7.90
2018-10-01T15:23:05.879Z,6.67
2018-10-01T15:25:36.481Z,5.73
2018-10-01T15:28:06.606Z,5.63
2018-10-01T15:30:36.995Z,7.03
2018-10-01T15:33:07.640Z,5.87
2018-10-01T15:35:37.552Z,5.33
2018-10-01T15:38:07.610Z,6.87
2018-10-01T15:40:38.033Z,7.50
2018-10-01T15:43:08.090Z,7.23
2018-10-01T15:45:38.181Z,8.73
2018-10-01T15:48:08.947Z,5.83
2018-10-01T15:50:39.935Z,4.47
2018-10-01T15:53:09.760Z,8.10
2018-10-01T15:55:41.014Z,5.47
2018-10-01T15:58:11.919Z,4.77
2018-10-01T16:00:41.719Z,4.60
2018-10-01T16:03:12.094Z,6.47
2018-10-01T16:05:41.935Z,5.87
2018-10-01T16:08:11.694Z,5.23
2018-10-01T16:10:41.910Z,5.73
2018-10-01T16:13:11.673Z,5.37
2018-10-01T16:15:41.434Z,6.33
2018-10-01T16:18:11.649Z,5.97
2018-10-01T16:20:41.858Z,3.90
2018-10-01T16:23:11.758Z,4.00
2018-10-01T16:25:41.605Z,4.87
2018-10-01T16:28:11.467Z,6.73
2018-10-01T16:30:41.267Z,5.73
2018-10-01T16:33:11.063Z,6.30
2018-10-01T16:35:40.987Z,3.80
2018-10-01T16:38:10.767Z,5.10
2018-10-01T16:40:40.614Z,5.97
2018-10-01T16:43:10.387Z,3.73
2018-10-01T16:45:40.671Z,4.73
2018-10-01T16:48:10.547Z,1.80
2018-10-01T16:50:40.406Z,4.20
2018-10-01T16:53:10.598Z,3.43
2018-10-01T16:55:40.336Z,2.93
2018-10-01T16:58:10.262Z,3.97
2018-10-01T17:00:40.255Z,2.27
2018-10-01T17:03:10.294Z,2.87
2018-10-01T17:05:40.883Z,7.47
2018-10-01T17:08:14.787Z,3.23
2018-10-01T17:10:45.250Z,3.10
2018-10-01T17:13:15.556Z,3.10
2018-10-01T17:15:47.423Z,2.23
2018-10-01T17:18:19.188Z,3.50
2018-10-01T17:20:50.508Z,4.80
2018-10-01T17:23:20.297Z,3.37
2018-10-01T17:25:51.281Z,4.73
2018-10-01T17:28:21.458Z,4.90
2018-10-01T17:30:52.936Z,4.97
2018-10-01T17:33:22.997Z,8.10
2018-10-01T17:35:53.022Z,4.43
2018-10-01T17:38:23.337Z,8.00
2018-10-01T17:40:53.175Z,7.30
2018-10-01T17:43:23.019Z,5.87
2018-10-01T17:45:53.237Z,5.37
2018-10-01T17:48:24.490Z,8.83
2018-10-01T17:50:54.451Z,4.60
2018-10-01T17:53:27.421Z,6.37
2018-10-01T17:55:58.220Z,7.67
2018-10-01T17:58:30.140Z,7.47
2018-10-01T18:01:00.048Z,8.13
2018-10-01T18:03:30.655Z,4.57
2018-10-01T18:06:01.186Z,9.60
2018-10-01T18:08:31.063Z,6.00
2018-10-01T18:11:01.307Z,6.40
2018-10-01T18:13:31.251Z,7.23
2018-10-01T18:16:01.088Z,6.57
2018-10-01T18:18:30.876Z,7.67
2018-10-01T18:21:00.731Z,5.93
2018-10-01T18:23:30.894Z,8.10
2018-10-01T18:26:00.968Z,7.07
2018-10-01T18:28:30.840Z,6.63
2018-10-01T18:31:01.691Z,8.47
2018-10-01T18:33:31.487Z,10.00
2018-10-01T18:36:01.360Z,7.33
2018-10-01T18:38:31.154Z,6.43
2018-10-01T18:41:01.329Z,7.13
2018-10-01T18:43:31.158Z,8.43
2018-10-01T18:46:01.074Z,5.47
2018-10-01T18:48:31.200Z,9.47
2018-10-01T18:51:01.234Z,12.27
2018-10-01T18:53:31.358Z,10.43
2018-10-01T18:56:01.316Z,16.60
2018-10-01T18:58:31.819Z,13.70
2018-10-01T19:01:04.394Z,13.23
2018-10-01T19:03:34.837Z,13.87
2018-10-01T19:06:05.437Z,13.43
2018-10-01T19:08:35.218Z,11.90
2018-10-01T19:11:05.030Z,13.13
2018-10-01T19:13:35.401Z,9.17
2018-10-01T19:16:05.616Z,9.83
2018-10-01T19:18:35.482Z,9.90
2018-10-01T19:21:05.924Z,14.87
2018-10-01T19:23:36.030Z,11.27
2018-10-01T19:26:06.333Z,14.30
2018-10-01T19:28:36.946Z,8.03
2018-10-01T19:31:07.072Z,10.03
2018-10-01T19:33:36.851Z,12.27
2018-10-01T19:36:06.686Z,10.57
2018-10-01T19:38:36.523Z,12.70
2018-10-01T19:41:06.377Z,16.50
2018-10-01T19:43:36.559Z,15.27
2018-10-01T19:46:06.331Z,17.60
2018-10-01T19:48:36.100Z,13.03
2018-10-01T19:51:06.173Z,12.80
2018-10-01T19:53:36.022Z,10.80
2018-10-01T19:56:06.155Z,12.90
2018-10-01T19:58:36.630Z,14.73
2018-10-01T20:01:06.481Z,13.33
2018-10-01T20:03:36.274Z,20.23
2018-10-01T20:06:06.830Z,11.63
2018-10-01T20:08:36.724Z,14.20
2018-10-01T20:11:08.976Z,13.40
2018-10-01T20:13:38.923Z,11.77
2018-10-01T20:16:08.926Z,16.80
2018-10-01T20:18:38.683Z,11.00
2018-10-01T20:21:09.529Z,12.13
2018-10-01T20:23:39.401Z,11.73
2018-10-01T20:26:09.292Z,12.87
2018-10-01T20:28:39.701Z,21.53
2018-10-01T20:31:09.438Z,13.80
2018-10-01T20:33:39.254Z,12.63
2018-10-01T20:36:09.796Z,10.80
2018-10-01T20:38:39.890Z,10.00
2018-10-01T20:41:09.962Z,11.47
2018-10-01T20:43:40.169Z,13.63
2018-10-01T20:46:09.976Z,12.73
2018-10-01T20:48:40.374Z,12.30
2018-10-01T20:51:10.555Z,9.63
2018-10-01T20:53:40.473Z,14.90
2018-10-01T20:56:11.061Z,10.13
2018-10-01T20:58:41.567Z,11.77
2018-10-01T21:01:11.866Z,12.67
2018-10-01T21:03:41.814Z,11.63
2018-10-01T21:06:12.538Z,10.17
2018-10-01T21:08:42.902Z,7.63
2018-10-01T21:11:13.218Z,9.53
2018-10-01T21:13:43.144Z,14.53
2018-10-01T21:16:13.306Z,11.00
2018-10-01T21:18:43.211Z,9.00
2018-10-01T21:21:12.991Z,10.43
2018-10-01T21:23:42.788Z,9.63
2018-10-01T21:26:12.563Z,14.60
2018-10-01T21:28:42.335Z,9.17
2018-10-01T21:31:12.362Z,12.50
2018-10-01T21:33:42.384Z,14.67
2018-10-01T21:36:12.606Z,23.80
2018-10-01T21:38:44.299Z,13.17
2018-10-01T21:41:14.392Z,14.27
2018-10-01T21:43:44.168Z,14.87
2018-10-01T21:46:14.798Z,8.73
2018-10-01T21:48:44.767Z,16.60
2018-10-01T21:51:14.806Z,10.80
2018-10-01T21:53:45.009Z,13.37
2018-10-01T21:56:15.135Z,9.80
2018-10-01T21:58:45.082Z,9.50
2018-10-01T22:01:20.581Z,13.70
2018-10-01T22:03:50.487Z,11.23
2018-10-01T22:06:20.681Z,16.80
2018-10-01T22:08:51.041Z,13.03
2018-10-01T22:11:21.115Z,11.67
2018-10-01T22:13:51.207Z,14.13
2018-10-01T22:16:21.343Z,11.47
2018-10-01T22:18:51.516Z,10.97
2018-10-01T22:21:21.561Z,10.87
2018-10-01T22:23:51.509Z,16.30
2018-10-01T22:26:21.282Z,18.13
2018-10-01T22:28:51.107Z,12.60
2018-10-01T22:31:21.198Z,14.70
2018-10-01T22:33:51.003Z,18.50
2018-10-01T22:36:21.589Z,10.70
2018-10-01T22:38:51.867Z,15.67
2018-10-01T22:41:22.022Z,13.67
2018-10-01T22:43:53.077Z,14.57
2018-10-01T22:46:23.502Z,17.87
2018-10-01T22:48:53.602Z,11.27
2018-10-01T22:51:24.122Z,17.63
2018-10-01T22:53:54.269Z,13.80
2018-10-01T22:56:24.201Z,12.77
2018-10-01T22:58:53.974Z,16.50
2018-10-01T23:01:24.298Z,13.00
2018-10-01T23:03:54.169Z,11.87
2018-10-01T23:06:24.454Z,14.73
2018-10-01T23:08:55.178Z,12.10
2018-10-01T23:11:25.354Z,11.57
2018-10-01T23:13:55.342Z,9.23
2018-10-01T23:16:25.792Z,8.70
2018-10-01T23:18:55.875Z,6.17
2018-10-01T23:21:26.030Z,12.97
2018-10-01T23:23:57.022Z,12.27
2018-10-01T23:26:27.094Z,7.43
2018-10-01T23:28:57.501Z,8.67
2018-10-01T23:31:27.954Z,10.27
2018-10-01T23:33:57.906Z,7.33
2018-10-01T23:36:28.238Z,12.93
2018-10-01T23:38:58.654Z,12.47
2018-10-01T23:41:29.848Z,9.10
2018-10-01T23:44:00.016Z,10.17
2018-10-01T23:46:30.483Z,8.77
2018-10-01T23:49:00.543Z,9.10
2018-10-01T23:51:30.587Z,9.50
2018-10-01T23:54:01.346Z,11.17
2018-10-01T23:56:31.494Z,10.43
2018-10-01T23:59:01.457Z,10.77
